sensor_id;sensor_type;location;lat;lon;timestamp;P1;durP1;ratioP1;P2;durP2;ratioP2
4521;SDS011;2273;48.464;11.926;2023-08-01T00:02:03;6.80;;;4.27;;
4521;SDS011;2273;48.464;11.926;2023-08-01T00:04:29;7.00;;;4.50;;
4521;SDS011;2273;48.464;11.926;2023-08-01T00:06:54;13.90;;;4.90;;
4521;SDS011;2273;48.464;11.926;2023-08-01T00:09:20;6.83;;;4.80;;
4521;SDS011;2273;48.464;11.926;2023-08-01T00:11:46;10.20;;;4.20;;
4521;SDS011;2273;48.464;11.926;2023-08-01T00:14:11;11.37;;;4.57;;
4521;SDS011;2273;48.464;11.926;2023-08-01T00:16:36;9.00;;;4.70;;
4521;SDS011;2273;48.464;11.926;2023-08-01T00:19:02;17.67;;;4.70;;
4521;SDS011;2273;48.464;11.926;2023-08-01T00:21:27;6.80;;;4.23;;
4521;SDS011;2273;48.464;11.926;2023-08-01T00:23:53;7.10;;;5.07;;
4521;SDS011;2273;48.464;11.926;2023-08-01T00:26:18;6.50;;;3.90;;
4521;SDS011;2273;48.464;11.926;2023-08-01T00:28:43;8.00;;;4.40;;
4521;SDS011;2273;48.464;11.926;2023-08-01T00:31:09;11.00;;;4.80;;
4521;SDS011;2273;48.464;11.926;2023-08-01T00:33:34;7.90;;;4.20;;
4521;SDS011;2273;48.464;11.926;2023-08-01T00:36:00;6.53;;;3.97;;
4521;SDS011;2273;48.464;11.926;2023-08-01T00:38:26;6.53;;;4.00;;
4521;SDS011;2273;48.464;11.926;2023-08-01T00:40:51;8.57;;;3.87;;
4521;SDS011;2273;48.464;11.926;2023-08-01T00:43:17;7.63;;;3.90;;
4521;SDS011;2273;48.464;11.926;2023-08-01T00:45:42;7.37;;;3.83;;
4521;SDS011;2273;48.464;11.926;2023-08-01T00:48:08;6.70;;;4.60;;
4521;SDS011;2273;48.464;11.926;2023-08-01T00:50:36;6.40;;;4.33;;
4521;SDS011;2273;48.464;11.926;2023-08-01T00:53:03;8.87;;;4.03;;
4521;SDS011;2273;48.464;11.926;2023-08-01T00:55:29;6.33;;;4.50;;
4521;SDS011;2273;48.464;11.926;2023-08-01T00:57:55;5.80;;;4.03;;
4521;SDS011;2273;48.464;11.926;2023-08-01T01:00:21;7.30;;;5.00;;
4521;SDS011;2273;48.464;11.926;2023-08-01T01:02:46;7.53;;;4.80;;
4521;SDS011;2273;48.464;11.926;2023-08-01T01:05:12;9.27;;;5.73;;
4521;SDS011;2273;48.464;11.926;2023-08-01T01:07:38;7.30;;;4.13;;
4521;SDS011;2273;48.464;11.926;2023-08-01T01:10:04;9.73;;;4.23;;
4521;SDS011;2273;48.464;11.926;2023-08-01T01:12:30;7.03;;;4.33;;
4521;SDS011;2273;48.464;11.926;2023-08-01T01:14:55;7.40;;;4.73;;
4521;SDS011;2273;48.464;11.926;2023-08-01T01:17:21;13.67;;;5.00;;
4521;SDS011;2273;48.464;11.926;2023-08-01T01:19:46;6.80;;;4.63;;
4521;SDS011;2273;48.464;11.926;2023-08-01T01:22:12;9.90;;;4.47;;
4521;SDS011;2273;48.464;11.926;2023-08-01T01:24:37;6.80;;;4.33;;
4521;SDS011;2273;48.464;11.926;2023-08-01T01:27:05;8.97;;;5.03;;
4521;SDS011;2273;48.464;11.926;2023-08-01T01:29:31;10.23;;;4.77;;
4521;SDS011;2273;48.464;11.926;2023-08-01T01:31:59;10.63;;;4.70;;
4521;SDS011;2273;48.464;11.926;2023-08-01T01:34:25;8.37;;;4.70;;
4521;SDS011;2273;48.464;11.926;2023-08-01T01:36:51;9.10;;;5.13;;
4521;SDS011;2273;48.464;11.926;2023-08-01T01:39:17;6.00;;;4.77;;
4521;SDS011;2273;48.464;11.926;2023-08-01T01:41:43;9.70;;;5.10;;
4521;SDS011;2273;48.464;11.926;2023-08-01T01:44:08;10.33;;;4.60;;
4521;SDS011;2273;48.464;11.926;2023-08-01T01:46:34;10.50;;;4.40;;
4521;SDS011;2273;48.464;11.926;2023-08-01T01:48:59;7.77;;;4.57;;
4521;SDS011;2273;48.464;11.926;2023-08-01T01:51:28;6.80;;;4.60;;
4521;SDS011;2273;48.464;11.926;2023-08-01T01:53:55;6.70;;;4.17;;
4521;SDS011;2273;48.464;11.926;2023-08-01T01:56:21;13.80;;;5.00;;
4521;SDS011;2273;48.464;11.926;2023-08-01T01:58:47;6.87;;;4.73;;
4521;SDS011;2273;48.464;11.926;2023-08-01T02:01:12;7.03;;;4.43;;
4521;SDS011;2273;48.464;11.926;2023-08-01T02:03:38;10.03;;;4.33;;
4521;SDS011;2273;48.464;11.926;2023-08-01T02:06:03;9.93;;;4.30;;
4521;SDS011;2273;48.464;11.926;2023-08-01T02:08:29;7.27;;;4.47;;
4521;SDS011;2273;48.464;11.926;2023-08-01T02:10:55;9.20;;;4.63;;
4521;SDS011;2273;48.464;11.926;2023-08-01T02:13:23;9.30;;;4.57;;
4521;SDS011;2273;48.464;11.926;2023-08-01T02:15:49;6.73;;;4.83;;
4521;SDS011;2273;48.464;11.926;2023-08-01T02:18:14;8.83;;;5.03;;
4521;SDS011;2273;48.464;11.926;2023-08-01T02:20:39;6.47;;;4.40;;
4521;SDS011;2273;48.464;11.926;2023-08-01T02:23:05;9.13;;;4.97;;
4521;SDS011;2273;48.464;11.926;2023-08-01T02:25:30;8.17;;;5.17;;
4521;SDS011;2273;48.464;11.926;2023-08-01T02:27:56;6.50;;;4.37;;
4521;SDS011;2273;48.464;11.926;2023-08-01T02:30:21;7.37;;;4.43;;
4521;SDS011;2273;48.464;11.926;2023-08-01T02:32:47;9.40;;;5.50;;
4521;SDS011;2273;48.464;11.926;2023-08-01T02:35:12;7.40;;;4.87;;
4521;SDS011;2273;48.464;11.926;2023-08-01T02:37:37;6.60;;;4.80;;
4521;SDS011;2273;48.464;11.926;2023-08-01T02:40:03;7.57;;;4.60;;
4521;SDS011;2273;48.464;11.926;2023-08-01T02:42:32;10.63;;;4.77;;
4521;SDS011;2273;48.464;11.926;2023-08-01T02:44:58;8.30;;;4.40;;
4521;SDS011;2273;48.464;11.926;2023-08-01T02:47:23;15.10;;;4.43;;
4521;SDS011;2273;48.464;11.926;2023-08-01T02:49:49;6.27;;;4.17;;
4521;SDS011;2273;48.464;11.926;2023-08-01T02:52:14;10.07;;;5.13;;
4521;SDS011;2273;48.464;11.926;2023-08-01T02:54:39;9.03;;;4.90;;
4521;SDS011;2273;48.464;11.926;2023-08-01T02:57:05;7.87;;;4.80;;
4521;SDS011;2273;48.464;11.926;2023-08-01T02:59:31;9.70;;;5.13;;
4521;SDS011;2273;48.464;11.926;2023-08-01T03:01:58;7.07;;;4.90;;
4521;SDS011;2273;48.464;11.926;2023-08-01T03:04:24;8.17;;;4.30;;
4521;SDS011;2273;48.464;11.926;2023-08-01T03:06:50;7.77;;;5.10;;
4521;SDS011;2273;48.464;11.926;2023-08-01T03:09:15;20.17;;;4.90;;
4521;SDS011;2273;48.464;11.926;2023-08-01T03:11:41;9.03;;;5.13;;
4521;SDS011;2273;48.464;11.926;2023-08-01T03:14:06;7.63;;;4.43;;
4521;SDS011;2273;48.464;11.926;2023-08-01T03:16:32;13.00;;;4.90;;
4521;SDS011;2273;48.464;11.926;2023-08-01T03:18:58;9.97;;;4.50;;
4521;SDS011;2273;48.464;11.926;2023-08-01T03:21:29;6.83;;;4.93;;
4521;SDS011;2273;48.464;11.926;2023-08-01T03:23:56;9.43;;;4.87;;
4521;SDS011;2273;48.464;11.926;2023-08-01T03:26:22;11.73;;;5.40;;
4521;SDS011;2273;48.464;11.926;2023-08-01T03:28:47;6.30;;;4.97;;
4521;SDS011;2273;48.464;11.926;2023-08-01T03:31:13;8.40;;;4.90;;
4521;SDS011;2273;48.464;11.926;2023-08-01T03:33:38;7.20;;;4.37;;
4521;SDS011;2273;48.464;11.926;2023-08-01T03:36:04;8.30;;;4.47;;
4521;SDS011;2273;48.464;11.926;2023-08-01T03:38:29;6.50;;;4.50;;
4521;SDS011;2273;48.464;11.926;2023-08-01T03:40:54;9.83;;;4.40;;
4521;SDS011;2273;48.464;11.926;2023-08-01T03:43:20;9.53;;;4.47;;
4521;SDS011;2273;48.464;11.926;2023-08-01T03:45:48;12.57;;;5.03;;
4521;SDS011;2273;48.464;11.926;2023-08-01T03:48:14;9.23;;;4.83;;
4521;SDS011;2273;48.464;11.926;2023-08-01T03:50:40;8.53;;;4.53;;
4521;SDS011;2273;48.464;11.926;2023-08-01T03:53:05;7.70;;;4.53;;
4521;SDS011;2273;48.464;11.926;2023-08-01T03:55:30;7.60;;;4.53;;
4521;SDS011;2273;48.464;11.926;2023-08-01T03:57:56;9.37;;;4.20;;
4521;SDS011;2273;48.464;11.926;2023-08-01T04:00:22;6.37;;;4.40;;
4521;SDS011;2273;48.464;11.926;2023-08-01T04:02:47;8.37;;;4.30;;
4521;SDS011;2273;48.464;11.926;2023-08-01T04:05:13;7.87;;;4.80;;
4521;SDS011;2273;48.464;11.926;2023-08-01T04:07:38;9.37;;;4.90;;
4521;SDS011;2273;48.464;11.926;2023-08-01T04:10:04;9.27;;;4.93;;
4521;SDS011;2273;48.464;11.926;2023-08-01T04:12:33;8.67;;;4.30;;
4521;SDS011;2273;48.464;11.926;2023-08-01T04:14:59;8.57;;;4.93;;
4521;SDS011;2273;48.464;11.926;2023-08-01T04:17:25;9.30;;;4.67;;
4521;SDS011;2273;48.464;11.926;2023-08-01T04:19:50;7.30;;;4.40;;
4521;SDS011;2273;48.464;11.926;2023-08-01T04:22:16;8.60;;;4.37;;
4521;SDS011;2273;48.464;11.926;2023-08-01T04:24:41;9.20;;;4.90;;
4521;SDS011;2273;48.464;11.926;2023-08-01T04:27:07;6.50;;;4.30;;
4521;SDS011;2273;48.464;11.926;2023-08-01T04:29:32;12.90;;;5.20;;
4521;SDS011;2273;48.464;11.926;2023-08-01T04:31:58;8.20;;;5.00;;
4521;SDS011;2273;48.464;11.926;2023-08-01T04:34:24;8.63;;;5.40;;
4521;SDS011;2273;48.464;11.926;2023-08-01T04:36:49;7.70;;;5.03;;
4521;SDS011;2273;48.464;11.926;2023-08-01T04:39:15;9.73;;;4.80;;
4521;SDS011;2273;48.464;11.926;2023-08-01T04:41:40;18.80;;;5.00;;
4521;SDS011;2273;48.464;11.926;2023-08-01T04:44:06;7.83;;;4.63;;
4521;SDS011;2273;48.464;11.926;2023-08-01T04:46:32;8.90;;;4.43;;
4521;SDS011;2273;48.464;11.926;2023-08-01T04:48:57;9.80;;;5.10;;
4521;SDS011;2273;48.464;11.926;2023-08-01T04:51:24;9.43;;;4.70;;
4521;SDS011;2273;48.464;11.926;2023-08-01T04:53:49;7.30;;;4.87;;
4521;SDS011;2273;48.464;11.926;2023-08-01T04:56:15;8.23;;;4.60;;
4521;SDS011;2273;48.464;11.926;2023-08-01T04:58:40;9.70;;;5.03;;
4521;SDS011;2273;48.464;11.926;2023-08-01T05:01:06;8.57;;;4.37;;
4521;SDS011;2273;48.464;11.926;2023-08-01T05:03:31;7.83;;;5.10;;
4521;SDS011;2273;48.464;11.926;2023-08-01T05:05:57;9.27;;;5.17;;
4521;SDS011;2273;48.464;11.926;2023-08-01T05:08:22;7.93;;;4.67;;
4521;SDS011;2273;48.464;11.926;2023-08-01T05:10:48;6.70;;;4.83;;
4521;SDS011;2273;48.464;11.926;2023-08-01T05:13:13;10.63;;;4.90;;
4521;SDS011;2273;48.464;11.926;2023-08-01T05:15:39;7.27;;;5.10;;
4521;SDS011;2273;48.464;11.926;2023-08-01T05:18:04;12.40;;;5.10;;
4521;SDS011;2273;48.464;11.926;2023-08-01T05:20:29;8.57;;;5.27;;
4521;SDS011;2273;48.464;11.926;2023-08-01T05:22:59;9.90;;;5.73;;
4521;SDS011;2273;48.464;11.926;2023-08-01T05:25:24;11.27;;;5.13;;
4521;SDS011;2273;48.464;11.926;2023-08-01T05:27:50;8.80;;;5.30;;
4521;SDS011;2273;48.464;11.926;2023-08-01T05:30:16;7.00;;;5.00;;
4521;SDS011;2273;48.464;11.926;2023-08-01T05:32:42;9.57;;;5.17;;
4521;SDS011;2273;48.464;11.926;2023-08-01T05:35:09;8.60;;;5.60;;
4521;SDS011;2273;48.464;11.926;2023-08-01T05:37:34;16.10;;;5.33;;
4521;SDS011;2273;48.464;11.926;2023-08-01T05:40:01;8.97;;;5.27;;
4521;SDS011;2273;48.464;11.926;2023-08-01T05:42:28;7.50;;;5.20;;
4521;SDS011;2273;48.464;11.926;2023-08-01T05:44:53;14.13;;;5.60;;
4521;SDS011;2273;48.464;11.926;2023-08-01T05:47:18;12.30;;;6.20;;
4521;SDS011;2273;48.464;11.926;2023-08-01T05:49:44;11.70;;;5.83;;
4521;SDS011;2273;48.464;11.926;2023-08-01T05:52:09;12.07;;;5.93;;
4521;SDS011;2273;48.464;11.926;2023-08-01T05:54:35;12.83;;;5.70;;
4521;SDS011;2273;48.464;11.926;2023-08-01T05:57:00;10.30;;;6.00;;
4521;SDS011;2273;48.464;11.926;2023-08-01T05:59:25;9.53;;;5.70;;
4521;SDS011;2273;48.464;11.926;2023-08-01T06:01:51;10.80;;;6.47;;
4521;SDS011;2273;48.464;11.926;2023-08-01T06:04:17;10.27;;;6.23;;
4521;SDS011;2273;48.464;11.926;2023-08-01T06:06:42;8.27;;;5.43;;
4521;SDS011;2273;48.464;11.926;2023-08-01T06:09:08;9.53;;;5.97;;
4521;SDS011;2273;48.464;11.926;2023-08-01T06:11:33;10.70;;;6.13;;
4521;SDS011;2273;48.464;11.926;2023-08-01T06:13:59;9.70;;;5.30;;
4521;SDS011;2273;48.464;11.926;2023-08-01T06:16:25;12.17;;;6.13;;
4521;SDS011;2273;48.464;11.926;2023-08-01T06:18:50;11.17;;;6.23;;
4521;SDS011;2273;48.464;11.926;2023-08-01T06:21:16;18.43;;;6.40;;
4521;SDS011;2273;48.464;11.926;2023-08-01T06:23:41;10.03;;;6.10;;
4521;SDS011;2273;48.464;11.926;2023-08-01T06:26:07;10.90;;;5.70;;
4521;SDS011;2273;48.464;11.926;2023-08-01T06:28:32;8.97;;;5.97;;
4521;SDS011;2273;48.464;11.926;2023-08-01T06:30:58;10.30;;;5.60;;
4521;SDS011;2273;48.464;11.926;2023-08-01T06:33:23;10.03;;;6.10;;
4521;SDS011;2273;48.464;11.926;2023-08-01T06:35:49;10.77;;;6.47;;
4521;SDS011;2273;48.464;11.926;2023-08-01T06:38:14;14.00;;;5.90;;
4521;SDS011;2273;48.464;11.926;2023-08-01T06:40:39;13.47;;;6.33;;
4521;SDS011;2273;48.464;11.926;2023-08-01T06:43:05;9.57;;;5.63;;
4521;SDS011;2273;48.464;11.926;2023-08-01T06:45:30;10.40;;;6.57;;
4521;SDS011;2273;48.464;11.926;2023-08-01T06:47:56;11.80;;;6.40;;
4521;SDS011;2273;48.464;11.926;2023-08-01T06:50:21;11.63;;;5.63;;
4521;SDS011;2273;48.464;11.926;2023-08-01T06:52:46;8.67;;;6.00;;
4521;SDS011;2273;48.464;11.926;2023-08-01T06:55:12;11.13;;;6.53;;
4521;SDS011;2273;48.464;11.926;2023-08-01T06:57:37;11.83;;;6.97;;
4521;SDS011;2273;48.464;11.926;2023-08-01T07:00:03;10.40;;;6.00;;
4521;SDS011;2273;48.464;11.926;2023-08-01T07:02:28;11.43;;;6.40;;
4521;SDS011;2273;48.464;11.926;2023-08-01T07:04:54;11.17;;;5.70;;
4521;SDS011;2273;48.464;11.926;2023-08-01T07:07:19;11.13;;;7.10;;
4521;SDS011;2273;48.464;11.926;2023-08-01T07:09:45;9.10;;;5.50;;
4521;SDS011;2273;48.464;11.926;2023-08-01T07:12:10;11.33;;;6.00;;
4521;SDS011;2273;48.464;11.926;2023-08-01T07:14:35;11.20;;;6.03;;
4521;SDS011;2273;48.464;11.926;2023-08-01T07:17:01;12.07;;;6.50;;
4521;SDS011;2273;48.464;11.926;2023-08-01T07:19:26;8.50;;;5.77;;
4521;SDS011;2273;48.464;11.926;2023-08-01T07:21:52;12.30;;;6.43;;
4521;SDS011;2273;48.464;11.926;2023-08-01T07:24:17;11.83;;;6.50;;
4521;SDS011;2273;48.464;11.926;2023-08-01T07:26:42;8.70;;;6.00;;
4521;SDS011;2273;48.464;11.926;2023-08-01T07:29:08;10.80;;;6.07;;
4521;SDS011;2273;48.464;11.926;2023-08-01T07:31:35;10.40;;;5.87;;
4521;SDS011;2273;48.464;11.926;2023-08-01T07:34:01;20.97;;;6.23;;
4521;SDS011;2273;48.464;11.926;2023-08-01T07:36:27;8.30;;;5.10;;
4521;SDS011;2273;48.464;11.926;2023-08-01T07:38:53;9.30;;;5.10;;
4521;SDS011;2273;48.464;11.926;2023-08-01T07:41:18;10.10;;;5.60;;
4521;SDS011;2273;48.464;11.926;2023-08-01T07:43:43;8.27;;;6.30;;
4521;SDS011;2273;48.464;11.926;2023-08-01T07:46:09;9.70;;;5.50;;
4521;SDS011;2273;48.464;11.926;2023-08-01T07:48:36;11.23;;;6.60;;
4521;SDS011;2273;48.464;11.926;2023-08-01T07:51:02;7.40;;;5.40;;
4521;SDS011;2273;48.464;11.926;2023-08-01T07:53:30;8.90;;;5.03;;
4521;SDS011;2273;48.464;11.926;2023-08-01T07:55:55;13.37;;;5.57;;
4521;SDS011;2273;48.464;11.926;2023-08-01T07:58:21;12.07;;;5.77;;
4521;SDS011;2273;48.464;11.926;2023-08-01T08:00:46;10.13;;;5.57;;
4521;SDS011;2273;48.464;11.926;2023-08-01T08:03:12;9.97;;;5.90;;
4521;SDS011;2273;48.464;11.926;2023-08-01T08:05:37;12.20;;;5.37;;
4521;SDS011;2273;48.464;11.926;2023-08-01T08:08:04;9.03;;;5.67;;
4521;SDS011;2273;48.464;11.926;2023-08-01T08:10:30;8.27;;;5.20;;
4521;SDS011;2273;48.464;11.926;2023-08-01T08:12:55;10.77;;;5.17;;
4521;SDS011;2273;48.464;11.926;2023-08-01T08:15:21;8.87;;;5.10;;
4521;SDS011;2273;48.464;11.926;2023-08-01T08:17:46;9.80;;;5.43;;
4521;SDS011;2273;48.464;11.926;2023-08-01T08:20:11;9.50;;;5.43;;
4521;SDS011;2273;48.464;11.926;2023-08-01T08:22:37;8.60;;;5.33;;
4521;SDS011;2273;48.464;11.926;2023-08-01T08:25:02;8.13;;;5.70;;
4521;SDS011;2273;48.464;11.926;2023-08-01T08:27:28;11.83;;;5.13;;
4521;SDS011;2273;48.464;11.926;2023-08-01T08:29:53;12.10;;;5.50;;
4521;SDS011;2273;48.464;11.926;2023-08-01T08:32:20;7.33;;;4.60;;
4521;SDS011;2273;48.464;11.926;2023-08-01T08:34:45;8.43;;;4.77;;
4521;SDS011;2273;48.464;11.926;2023-08-01T08:37:11;10.00;;;5.47;;
4521;SDS011;2273;48.464;11.926;2023-08-01T08:39:36;10.30;;;4.90;;
4521;SDS011;2273;48.464;11.926;2023-08-01T08:42:01;9.47;;;5.13;;
4521;SDS011;2273;48.464;11.926;2023-08-01T08:44:27;6.80;;;4.80;;
4521;SDS011;2273;48.464;11.926;2023-08-01T08:46:55;8.07;;;4.77;;
4521;SDS011;2273;48.464;11.926;2023-08-01T08:49:27;10.10;;;5.20;;
4521;SDS011;2273;48.464;11.926;2023-08-01T08:51:52;8.50;;;5.20;;
4521;SDS011;2273;48.464;11.926;2023-08-01T08:54:19;8.23;;;5.20;;
4521;SDS011;2273;48.464;11.926;2023-08-01T08:56:44;8.83;;;4.80;;
4521;SDS011;2273;48.464;11.926;2023-08-01T08:59:11;11.00;;;4.90;;
4521;SDS011;2273;48.464;11.926;2023-08-01T09:01:36;6.23;;;4.53;;
4521;SDS011;2273;48.464;11.926;2023-08-01T09:04:03;12.60;;;4.83;;
4521;SDS011;2273;48.464;11.926;2023-08-01T09:06:29;8.77;;;5.47;;
4521;SDS011;2273;48.464;11.926;2023-08-01T09:09:04;6.73;;;4.80;;
4521;SDS011;2273;48.464;11.926;2023-08-01T09:11:55;13.87;;;4.60;;
4521;SDS011;2273;48.464;11.926;2023-08-01T09:14:21;11.27;;;5.20;;
4521;SDS011;2273;48.464;11.926;2023-08-01T09:16:47;9.70;;;5.17;;
4521;SDS011;2273;48.464;11.926;2023-08-01T09:19:19;7.90;;;4.97;;
4521;SDS011;2273;48.464;11.926;2023-08-01T09:21:47;7.43;;;4.60;;
4521;SDS011;2273;48.464;11.926;2023-08-01T09:24:13;8.57;;;4.37;;
4521;SDS011;2273;48.464;11.926;2023-08-01T09:26:40;7.43;;;4.40;;
4521;SDS011;2273;48.464;11.926;2023-08-01T09:29:06;7.87;;;4.17;;
4521;SDS011;2273;48.464;11.926;2023-08-01T09:31:33;10.73;;;4.70;;
4521;SDS011;2273;48.464;11.926;2023-08-01T09:34:01;8.30;;;4.00;;
4521;SDS011;2273;48.464;11.926;2023-08-01T09:36:30;5.83;;;3.77;;
4521;SDS011;2273;48.464;11.926;2023-08-01T09:39:02;6.40;;;3.93;;
4521;SDS011;2273;48.464;11.926;2023-08-01T09:41:29;10.20;;;4.20;;
4521;SDS011;2273;48.464;11.926;2023-08-01T09:43:55;7.63;;;4.70;;
4521;SDS011;2273;48.464;11.926;2023-08-01T09:46:21;8.43;;;4.63;;
4521;SDS011;2273;48.464;11.926;2023-08-01T09:48:47;7.20;;;4.50;;
4521;SDS011;2273;48.464;11.926;2023-08-01T09:51:13;5.23;;;3.70;;
4521;SDS011;2273;48.464;11.926;2023-08-01T09:53:52;6.50;;;4.47;;
4521;SDS011;2273;48.464;11.926;2023-08-01T09:56:19;8.10;;;4.00;;
4521;SDS011;2273;48.464;11.926;2023-08-01T09:58:48;7.00;;;4.40;;
4521;SDS011;2273;48.464;11.926;2023-08-01T10:01:14;7.33;;;4.57;;
4521;SDS011;2273;48.464;11.926;2023-08-01T10:03:44;6.20;;;4.10;;
4521;SDS011;2273;48.464;11.926;2023-08-01T10:06:12;6.27;;;4.00;;
4521;SDS011;2273;48.464;11.926;2023-08-01T10:08:39;8.33;;;4.30;;
4521;SDS011;2273;48.464;11.926;2023-08-01T10:11:05;7.83;;;4.07;;
4521;SDS011;2273;48.464;11.926;2023-08-01T10:13:31;6.93;;;4.20;;
4521;SDS011;2273;48.464;11.926;2023-08-01T10:15:56;8.27;;;4.33;;
4521;SDS011;2273;48.464;11.926;2023-08-01T10:18:23;12.23;;;4.37;;
4521;SDS011;2273;48.464;11.926;2023-08-01T10:20:48;8.87;;;4.67;;
4521;SDS011;2273;48.464;11.926;2023-08-01T10:23:14;6.97;;;3.67;;
4521;SDS011;2273;48.464;11.926;2023-08-01T10:25:40;8.53;;;4.27;;
4521;SDS011;2273;48.464;11.926;2023-08-01T10:28:06;7.80;;;4.60;;
4521;SDS011;2273;48.464;11.926;2023-08-01T10:30:31;6.53;;;4.20;;
4521;SDS011;2273;48.464;11.926;2023-08-01T10:32:57;8.00;;;4.27;;
4521;SDS011;2273;48.464;11.926;2023-08-01T10:35:36;6.60;;;4.23;;
4521;SDS011;2273;48.464;11.926;2023-08-01T10:38:03;6.40;;;4.40;;
4521;SDS011;2273;48.464;11.926;2023-08-01T10:40:39;26.27;;;4.93;;
4521;SDS011;2273;48.464;11.926;2023-08-01T10:43:06;9.40;;;4.70;;
4521;SDS011;2273;48.464;11.926;2023-08-01T10:45:43;7.40;;;4.20;;
4521;SDS011;2273;48.464;11.926;2023-08-01T10:48:10;7.60;;;4.20;;
4521;SDS011;2273;48.464;11.926;2023-08-01T10:50:36;5.67;;;3.57;;
4521;SDS011;2273;48.464;11.926;2023-08-01T10:53:02;7.77;;;4.50;;
4521;SDS011;2273;48.464;11.926;2023-08-01T10:55:38;10.27;;;4.23;;
4521;SDS011;2273;48.464;11.926;2023-08-01T10:58:04;5.43;;;3.70;;
4521;SDS011;2273;48.464;11.926;2023-08-01T11:00:29;6.93;;;4.33;;
4521;SDS011;2273;48.464;11.926;2023-08-01T11:02:55;5.80;;;3.87;;
4521;SDS011;2273;48.464;11.926;2023-08-01T11:05:20;8.23;;;4.13;;
4521;SDS011;2273;48.464;11.926;2023-08-01T11:07:55;12.47;;;4.40;;
4521;SDS011;2273;48.464;11.926;2023-08-01T11:10:21;11.47;;;4.07;;
4521;SDS011;2273;48.464;11.926;2023-08-01T11:12:47;7.83;;;3.90;;
4521;SDS011;2273;48.464;11.926;2023-08-01T11:15:13;8.37;;;4.37;;
4521;SDS011;2273;48.464;11.926;2023-08-01T11:17:39;8.20;;;3.73;;
4521;SDS011;2273;48.464;11.926;2023-08-01T11:20:07;7.30;;;4.03;;
4521;SDS011;2273;48.464;11.926;2023-08-01T11:22:34;7.67;;;4.13;;
4521;SDS011;2273;48.464;11.926;2023-08-01T11:25:00;7.23;;;3.90;;
4521;SDS011;2273;48.464;11.926;2023-08-01T11:27:26;8.47;;;3.67;;
4521;SDS011;2273;48.464;11.926;2023-08-01T11:29:51;6.20;;;4.00;;
4521;SDS011;2273;48.464;11.926;2023-08-01T11:32:18;5.47;;;3.70;;
4521;SDS011;2273;48.464;11.926;2023-08-01T11:34:45;7.87;;;4.00;;
4521;SDS011;2273;48.464;11.926;2023-08-01T11:37:11;5.13;;;3.67;;
4521;SDS011;2273;48.464;11.926;2023-08-01T11:39:37;8.70;;;3.80;;
4521;SDS011;2273;48.464;11.926;2023-08-01T11:42:04;5.70;;;3.70;;
4521;SDS011;2273;48.464;11.926;2023-08-01T11:44:29;5.10;;;3.50;;
4521;SDS011;2273;48.464;11.926;2023-08-01T11:46:55;5.13;;;3.60;;
4521;SDS011;2273;48.464;11.926;2023-08-01T11:49:21;6.03;;;3.57;;
4521;SDS011;2273;48.464;11.926;2023-08-01T11:51:47;5.63;;;3.30;;
4521;SDS011;2273;48.464;11.926;2023-08-01T11:54:13;4.57;;;3.07;;
4521;SDS011;2273;48.464;11.926;2023-08-01T11:56:39;6.67;;;3.67;;
4521;SDS011;2273;48.464;11.926;2023-08-01T12:01:45;6.97;;;3.97;;
4521;SDS011;2273;48.464;11.926;2023-08-01T12:04:11;5.53;;;3.30;;
4521;SDS011;2273;48.464;11.926;2023-08-01T12:06:37;6.03;;;3.50;;
4521;SDS011;2273;48.464;11.926;2023-08-01T12:09:08;6.70;;;3.60;;
4521;SDS011;2273;48.464;11.926;2023-08-01T12:11:35;5.50;;;3.33;;
4521;SDS011;2273;48.464;11.926;2023-08-01T12:16:32;6.67;;;3.57;;
4521;SDS011;2273;48.464;11.926;2023-08-01T12:18:57;5.70;;;3.00;;
4521;SDS011;2273;48.464;11.926;2023-08-01T12:21:23;7.87;;;3.50;;
4521;SDS011;2273;48.464;11.926;2023-08-01T12:23:48;5.67;;;3.40;;
4521;SDS011;2273;48.464;11.926;2023-08-01T12:26:14;5.20;;;2.97;;
4521;SDS011;2273;48.464;11.926;2023-08-01T12:28:39;5.13;;;3.80;;
4521;SDS011;2273;48.464;11.926;2023-08-01T12:31:05;5.17;;;3.13;;
4521;SDS011;2273;48.464;11.926;2023-08-01T12:33:30;3.70;;;2.80;;
4521;SDS011;2273;48.464;11.926;2023-08-01T12:35:58;6.47;;;3.13;;
4521;SDS011;2273;48.464;11.926;2023-08-01T12:38:24;4.70;;;2.93;;
4521;SDS011;2273;48.464;11.926;2023-08-01T12:40:49;4.27;;;3.03;;
4521;SDS011;2273;48.464;11.926;2023-08-01T12:43:15;5.20;;;2.57;;
4521;SDS011;2273;48.464;11.926;2023-08-01T12:45:41;4.10;;;2.70;;
4521;SDS011;2273;48.464;11.926;2023-08-01T12:48:07;3.73;;;2.40;;
4521;SDS011;2273;48.464;11.926;2023-08-01T12:50:32;4.00;;;2.57;;
4521;SDS011;2273;48.464;11.926;2023-08-01T12:52:58;4.10;;;2.40;;
4521;SDS011;2273;48.464;11.926;2023-08-01T12:55:23;3.90;;;2.60;;
4521;SDS011;2273;48.464;11.926;2023-08-01T12:57:50;4.13;;;2.53;;
4521;SDS011;2273;48.464;11.926;2023-08-01T13:00:15;5.37;;;3.20;;
4521;SDS011;2273;48.464;11.926;2023-08-01T13:02:41;3.83;;;2.60;;
4521;SDS011;2273;48.464;11.926;2023-08-01T13:05:06;5.07;;;2.83;;
4521;SDS011;2273;48.464;11.926;2023-08-01T13:07:32;4.77;;;2.80;;
4521;SDS011;2273;48.464;11.926;2023-08-01T13:10:01;4.20;;;2.60;;
4521;SDS011;2273;48.464;11.926;2023-08-01T13:12:26;4.30;;;2.57;;
4521;SDS011;2273;48.464;11.926;2023-08-01T13:14:52;4.33;;;2.40;;
4521;SDS011;2273;48.464;11.926;2023-08-01T13:17:17;5.37;;;2.97;;
4521;SDS011;2273;48.464;11.926;2023-08-01T13:19:43;6.33;;;2.70;;
4521;SDS011;2273;48.464;11.926;2023-08-01T13:22:08;4.17;;;2.50;;
4521;SDS011;2273;48.464;11.926;2023-08-01T13:24:34;4.67;;;2.70;;
4521;SDS011;2273;48.464;11.926;2023-08-01T13:26:59;3.30;;;2.43;;
4521;SDS011;2273;48.464;11.926;2023-08-01T13:29:25;5.63;;;2.90;;
4521;SDS011;2273;48.464;11.926;2023-08-01T13:31:50;5.80;;;2.53;;
4521;SDS011;2273;48.464;11.926;2023-08-01T13:34:15;5.43;;;2.90;;
4521;SDS011;2273;48.464;11.926;2023-08-01T13:36:42;4.30;;;2.63;;
4521;SDS011;2273;48.464;11.926;2023-08-01T13:39:08;3.93;;;2.03;;
4521;SDS011;2273;48.464;11.926;2023-08-01T13:41:33;3.40;;;2.20;;
4521;SDS011;2273;48.464;11.926;2023-08-01T13:43:59;5.80;;;2.17;;
4521;SDS011;2273;48.464;11.926;2023-08-01T13:46:24;4.97;;;2.00;;
4521;SDS011;2273;48.464;11.926;2023-08-01T13:48:49;5.40;;;2.20;;
4521;SDS011;2273;48.464;11.926;2023-08-01T13:51:15;174.03;;;10.20;;
4521;SDS011;2273;48.464;11.926;2023-08-01T13:53:40;3.23;;;2.30;;
4521;SDS011;2273;48.464;11.926;2023-08-01T13:56:10;4.43;;;2.63;;
4521;SDS011;2273;48.464;11.926;2023-08-01T13:58:38;11.60;;;2.97;;
4521;SDS011;2273;48.464;11.926;2023-08-01T14:01:08;3.70;;;2.30;;
4521;SDS011;2273;48.464;11.926;2023-08-01T14:03:37;4.17;;;2.43;;
4521;SDS011;2273;48.464;11.926;2023-08-01T14:06:04;8.93;;;2.43;;
4521;SDS011;2273;48.464;11.926;2023-08-01T14:08:29;3.40;;;2.27;;
4521;SDS011;2273;48.464;11.926;2023-08-01T14:10:58;3.20;;;2.00;;
4521;SDS011;2273;48.464;11.926;2023-08-01T14:13:23;2.73;;;2.13;;
4521;SDS011;2273;48.464;11.926;2023-08-01T14:15:49;6.03;;;2.20;;
4521;SDS011;2273;48.464;11.926;2023-08-01T14:18:14;4.73;;;1.93;;
4521;SDS011;2273;48.464;11.926;2023-08-01T14:20:40;4.00;;;2.10;;
4521;SDS011;2273;48.464;11.926;2023-08-01T14:23:05;3.30;;;1.77;;
4521;SDS011;2273;48.464;11.926;2023-08-01T14:25:31;6.97;;;2.20;;
4521;SDS011;2273;48.464;11.926;2023-08-01T14:27:56;3.30;;;1.93;;
4521;SDS011;2273;48.464;11.926;2023-08-01T14:30:22;3.17;;;1.93;;
4521;SDS011;2273;48.464;11.926;2023-08-01T14:32:47;3.47;;;2.10;;
4521;SDS011;2273;48.464;11.926;2023-08-01T14:35:12;2.63;;;1.97;;
4521;SDS011;2273;48.464;11.926;2023-08-01T14:37:38;3.00;;;2.00;;
4521;SDS011;2273;48.464;11.926;2023-08-01T14:40:03;3.63;;;2.20;;
4521;SDS011;2273;48.464;11.926;2023-08-01T14:42:29;3.07;;;2.23;;
4521;SDS011;2273;48.464;11.926;2023-08-01T14:44:55;5.77;;;2.10;;
4521;SDS011;2273;48.464;11.926;2023-08-01T14:47:22;3.90;;;1.93;;
4521;SDS011;2273;48.464;11.926;2023-08-01T14:49:48;4.50;;;2.07;;
4521;SDS011;2273;48.464;11.926;2023-08-01T14:52:14;2.50;;;1.77;;
4521;SDS011;2273;48.464;11.926;2023-08-01T14:54:39;3.10;;;1.47;;
4521;SDS011;2273;48.464;11.926;2023-08-01T14:57:04;2.97;;;1.90;;